SACO/COR METAR and TAF weather

Enter ICAO airport designator
Station Type Date Time Source
SACO METAR 2020/07/15 09:00 UTC NOAA

SACO 150900Z 03006KT CAVOK 07/01 Q1018 NOSIG


Station Type Date Time Source
SACO Decoded METAR 2020/07/15 09:00 UTC NOAA

Cordoba Aerodrome, Argentina (SACO) 31-19S 064-13W 474M
Jul 15, 2020 - 05:00 AM EDT / 2020.07.15 0900 UTC
Wind: from the NNE (030 degrees) at 7 MPH (6 KT):0
Visibility: greater than 7 mile(s):0
Temperature: 44 F (7 C)
Dew Point: 33 F (1 C)
Relative Humidity: 65%
Pressure (altimeter): 30.06 in. Hg (1018 hPa)
ob: SACO 150900Z 03006KT CAVOK 07/01 Q1018 NOSIG
cycle: 9

Station Type Date Time Source
SACO TAF 2020/07/15 06:21 UTC NOAA

TAF SACO 150500Z 1506/1606 36005KT CAVOK TX20/1518Z TN02/1510Z
BECMG 1514/1516 05015KT
BECMG 1523/1601 36005KT

Example: see airport list